createdAt,value
2023-05-06T05:25:54.635Z,100328.94
2023-05-06T05:28:58.201Z,100322.41
2023-05-06T05:32:04.353Z,100333.31
2023-05-06T05:35:10.535Z,100326.22
2023-05-06T05:38:15.315Z,100322.97
2023-05-06T05:41:19.170Z,100321.81
2023-05-06T05:44:22.794Z,100319.13
2023-05-06T05:47:26.371Z,100324.44
2023-05-06T05:50:30.065Z,100333.59
2023-05-06T05:53:33.366Z,100325.37
2023-05-06T05:56:36.112Z,100318.31
2023-05-06T05:59:39.583Z,100325.91
2023-05-06T06:02:42.986Z,100331.72
2023-05-06T06:05:46.736Z,100323.88
2023-05-06T06:08:49.959Z,100329.84
2023-05-06T06:11:54.753Z,100326.28
2023-05-06T06:14:57.711Z,100322.31
2023-05-06T06:18:02.342Z,100319.75
2023-05-06T06:21:45.011Z,100326.06
2023-05-06T06:24:48.792Z,100324.66
2023-05-06T06:27:54.642Z,100315.72
2023-05-06T06:30:59.105Z,100325.41
2023-05-06T06:34:06.388Z,100331.97
2023-05-06T06:37:12.751Z,100329.81
2023-05-06T06:40:15.914Z,100332.84
2023-05-06T06:43:23.906Z,100329.06
2023-05-06T06:46:37.033Z,100333.25
2023-05-06T06:49:40.496Z,100325.47
2023-05-06T06:52:43.282Z,100323.78
2023-05-06T06:55:46.440Z,100333.72
2023-05-06T06:58:50.780Z,100326.84
2023-05-06T07:01:55.766Z,100332.37
2023-05-06T07:04:58.675Z,100334.19
2023-05-06T07:08:01.734Z,100341.56
2023-05-06T07:11:04.733Z,100335.41
2023-05-06T07:14:08.712Z,100336.06
2023-05-06T07:17:11.760Z,100346.47
2023-05-06T07:20:16.274Z,100339.13
2023-05-06T07:23:19.338Z,100336.03
2023-05-06T07:26:22.522Z,100342.13
2023-05-06T07:29:26.116Z,100347.62
2023-05-06T07:32:31.719Z,100344.78
2023-05-06T07:35:35.042Z,100351.75
2023-05-06T07:38:42.195Z,100354.28
2023-05-06T07:41:45.014Z,100342.37
2023-05-06T07:44:48.948Z,100344.94
2023-05-06T07:47:52.098Z,100337.78
2023-05-06T07:50:58.356Z,100336.03
2023-05-06T07:54:01.149Z,100334.69
2023-05-06T07:57:13.900Z,100332.84
2023-05-06T08:00:17.127Z,100334.16
2023-05-06T08:03:20.265Z,100335.44
2023-05-06T08:09:25.870Z,100349.75
2023-05-06T08:12:29.006Z,100350.50
2023-05-06T08:15:32.275Z,100350.88
2023-05-06T08:18:35.229Z,100345.34
2023-05-06T08:21:38.281Z,100345.16
2023-05-06T08:24:40.945Z,100340.69
2023-05-06T08:27:43.984Z,100344.53
2023-05-06T08:31:06.970Z,100330.66
2023-05-06T08:34:10.075Z,100335.22
2023-05-06T08:37:12.817Z,100333.78
2023-05-06T08:40:20.707Z,100339.88
2023-05-06T08:43:27.779Z,100333.34
2023-05-06T08:46:31.720Z,100344.69
2023-05-06T08:49:34.841Z,100327.41
2023-05-06T08:53:20.503Z,100338.59
2023-05-06T08:56:28.999Z,100340.53
2023-05-06T08:59:52.208Z,100334.53
2023-05-06T09:02:55.210Z,100335.94
2023-05-06T09:06:18.592Z,100331.41
2023-05-06T09:09:24.822Z,100323.47
2023-05-06T09:12:54.170Z,100321.53
2023-05-06T09:15:57.030Z,100320.28
2023-05-06T09:19:00.536Z,100312.38
2023-05-06T09:22:03.909Z,100319.94
2023-05-06T09:25:07.585Z,100309.19
2023-05-06T09:28:11.636Z,100315.41
2023-05-06T09:31:16.001Z,100310.56
2023-05-06T09:34:21.206Z,100314.84
2023-05-06T09:37:26.435Z,100310.16
2023-05-06T09:40:30.257Z,100318.25
2023-05-06T09:43:34.113Z,100304.69
2023-05-06T09:46:37.148Z,100304.03
2023-05-06T09:49:41.710Z,100302.13
2023-05-06T09:52:46.547Z,100305.44
2023-05-06T09:55:51.656Z,100306.31
2023-05-06T09:58:55.798Z,100297.87
2023-05-06T10:01:59.496Z,100292.69
2023-05-06T10:05:06.160Z,100285.81
2023-05-06T10:08:09.595Z,100285.16
2023-05-06T10:11:14.744Z,100277.47
2023-05-06T10:14:18.959Z,100280.25
2023-05-06T10:17:26.036Z,100282.13
2023-05-06T10:20:31.544Z,100277.72
2023-05-06T10:23:44.886Z,100278.91
2023-05-06T10:26:48.252Z,100272.19
2023-05-06T10:29:59.910Z,100267.28
2023-05-06T10:33:12.347Z,100265.44
2023-05-06T10:36:28.852Z,100263.94
2023-05-06T10:39:32.822Z,100260.19
2023-05-06T10:42:35.965Z,100257.16
2023-05-06T10:46:26.337Z,100247.59
2023-05-06T10:49:29.482Z,100245.09
2023-05-06T10:52:45.855Z,100238.88
2023-05-06T10:56:07.259Z,100233.31
2023-05-06T10:59:12.129Z,100238.72
2023-05-06T11:02:19.888Z,100236.44
2023-05-06T11:05:23.969Z,100230.13
2023-05-06T11:08:27.754Z,100238.59
2023-05-06T11:12:02.846Z,100234.41
2023-05-06T11:15:21.788Z,100238.19
2023-05-06T11:18:24.556Z,100231.62
2023-05-06T11:21:31.330Z,100230.78
2023-05-06T11:24:43.158Z,100223.56
2023-05-06T11:27:50.798Z,100234.41
2023-05-06T11:30:55.938Z,100228.88
2023-05-06T11:34:03.941Z,100234.03
2023-05-06T11:37:07.964Z,100239.44
2023-05-06T11:40:19.898Z,100228.53
2023-05-06T11:43:23.399Z,100232.50
2023-05-06T11:46:35.050Z,100234.66
2023-05-06T11:49:42.481Z,100235.34
2023-05-06T11:52:46.425Z,100234.88
2023-05-06T11:55:50.448Z,100231.31
2023-05-06T11:58:53.659Z,100238.19
2023-05-06T12:01:58.643Z,100233.41
2023-05-06T12:05:02.874Z,100236.56
2023-05-06T12:08:13.315Z,100236.47
2023-05-06T12:11:23.115Z,100227.31
2023-05-06T12:14:29.041Z,100227.72
2023-05-06T12:17:32.579Z,100227.84
2023-05-06T12:20:35.731Z,100239.03
2023-05-06T12:23:59.856Z,100226.72
2023-05-06T12:27:02.679Z,100228.19
2023-05-06T12:30:09.476Z,100222.00
2023-05-06T12:33:13.615Z,100221.94
2023-05-06T12:36:42.326Z,100223.31
2023-05-06T12:39:45.616Z,100215.34
2023-05-06T12:42:56.015Z,100206.94
2023-05-06T12:46:05.012Z,100209.41
2023-05-06T12:49:08.433Z,100210.81
2023-05-06T12:52:11.645Z,100212.50
2023-05-06T12:55:15.321Z,100210.37
2023-05-06T12:58:19.425Z,100206.78
2023-05-06T13:01:22.644Z,100207.34
2023-05-06T13:04:26.669Z,100201.47
2023-05-06T13:07:30.885Z,100209.41
2023-05-06T13:10:33.756Z,100200.88
2023-05-06T13:13:36.734Z,100194.28
2023-05-06T13:16:40.586Z,100204.19
2023-05-06T13:19:43.704Z,100201.12
2023-05-06T13:22:54.424Z,100199.72
2023-05-06T13:26:04.729Z,100200.78
2023-05-06T13:29:08.851Z,100206.87
2023-05-06T13:32:11.854Z,100196.56
2023-05-06T13:35:14.784Z,100198.41
2023-05-06T13:38:17.836Z,100195.50
2023-05-06T13:41:21.369Z,100197.06
2023-05-06T13:44:27.898Z,100191.09
2023-05-06T13:47:50.655Z,100182.09
2023-05-06T13:50:54.470Z,100184.25
2023-05-06T13:53:57.164Z,100185.78
2023-05-06T13:57:01.514Z,100183.34
2023-05-06T14:00:24.178Z,100186.25
2023-05-06T14:03:27.647Z,100191.44
2023-05-06T14:06:31.178Z,100195.75
2023-05-06T14:09:34.200Z,100181.81
2023-05-06T14:12:36.868Z,100190.53
2023-05-06T14:15:39.958Z,100185.81
2023-05-06T14:18:50.858Z,100186.66
2023-05-06T14:22:02.056Z,100172.50
2023-05-06T14:25:11.001Z,100172.09
2023-05-06T14:28:23.733Z,100175.53
2023-05-06T14:31:34.104Z,100175.91
2023-05-06T14:34:41.079Z,100168.53
2023-05-06T16:13:31.924Z,100119.56
2023-05-06T16:21:12.935Z,100128.34
2023-05-06T16:24:38.258Z,100133.25
2023-05-06T16:35:52.032Z,100144.69
2023-05-06T16:39:56.160Z,100141.81
2023-05-06T16:43:38.816Z,100144.38
2023-05-06T16:47:24.296Z,100137.25
2023-05-06T16:51:06.720Z,100146.66
2023-05-06T16:54:41.410Z,100143.00
2023-05-06T16:57:44.351Z,100151.38
2023-05-06T17:01:21.336Z,100148.41
2023-05-06T17:04:44.203Z,100146.97
2023-05-06T17:08:37.223Z,100142.56
2023-05-06T17:12:27.102Z,100145.31
2023-05-06T17:15:54.505Z,100142.97
2023-05-06T17:19:13.572Z,100134.63
2023-05-06T17:22:28.670Z,100130.56
2023-05-06T17:26:10.228Z,100126.75
2023-05-06T17:29:19.416Z,100132.06
2023-05-06T17:32:43.078Z,100131.94
2023-05-06T17:36:07.793Z,100123.72
2023-05-06T17:39:33.500Z,100131.03
2023-05-06T17:42:39.277Z,100130.66
2023-05-06T17:46:02.025Z,100117.88
2023-05-06T17:49:30.306Z,100125.19
2023-05-06T17:53:13.786Z,100130.19
2023-05-06T17:56:17.218Z,100129.03
2023-05-06T17:59:24.818Z,100136.00
2023-05-06T18:02:29.630Z,100132.66
2023-05-06T18:05:33.333Z,100138.41
2023-05-06T18:08:37.832Z,100144.69
2023-05-06T18:27:19.062Z,100173.50
2023-05-06T18:30:39.043Z,100181.47
2023-05-06T18:33:42.546Z,100173.25
2023-05-06T18:36:45.925Z,100180.22
2023-05-06T18:40:09.181Z,100174.38
2023-05-06T19:06:51.660Z,100196.41
2023-05-06T19:09:59.261Z,100193.59
2023-05-06T19:13:15.304Z,100195.34
2023-05-06T19:16:58.901Z,100195.22
2023-05-06T19:20:36.289Z,100200.91
2023-05-06T19:23:39.569Z,100200.94
2023-05-06T19:26:43.136Z,100204.59
2023-05-06T19:29:46.726Z,100216.63
2023-05-06T19:32:55.510Z,100239.59
2023-05-06T19:36:20.086Z,100241.75
2023-05-06T19:39:46.993Z,100228.31
2023-05-06T19:43:27.390Z,100231.16
2023-05-06T19:47:13.358Z,100228.28
2023-05-06T19:50:56.399Z,100229.97
2023-05-06T19:54:20.359Z,100216.97
2023-05-06T19:57:45.957Z,100227.13
2023-05-06T20:00:49.678Z,100224.13
2023-05-06T20:03:55.229Z,100217.72
2023-05-06T20:06:58.803Z,100210.72
2023-05-06T20:10:03.495Z,100213.63
2023-05-06T20:13:11.973Z,100218.59
2023-05-06T20:16:20.703Z,100222.56
2023-05-06T20:19:30.727Z,100216.87
2023-05-06T20:23:13.620Z,100210.81
2023-05-06T20:26:18.046Z,100201.06
2023-05-06T20:30:06.186Z,100198.84
2023-05-06T20:33:31.901Z,100193.97
2023-05-06T20:37:35.515Z,100195.38
2023-05-06T20:41:18.200Z,100189.59
2023-05-06T20:44:21.721Z,100189.19
2023-05-06T20:47:24.526Z,100183.09
2023-05-06T20:50:52.777Z,100183.88
2023-05-06T20:54:16.553Z,100185.13
2023-05-06T20:57:43.845Z,100186.06
2023-05-06T21:01:09.560Z,100184.03
2023-05-06T21:04:53.313Z,100192.41
2023-05-06T21:08:16.091Z,100183.06
2023-05-06T21:11:59.629Z,100184.19
2023-05-06T21:15:42.796Z,100190.19
2023-05-06T21:19:19.906Z,100186.88
2023-05-06T21:22:44.464Z,100200.00
2023-05-06T21:26:13.379Z,100197.63
2023-05-06T21:29:51.460Z,100205.19
2023-05-06T21:32:55.173Z,100215.16
2023-05-06T21:36:18.812Z,100215.78
2023-05-06T21:39:41.958Z,100223.22
2023-05-06T21:43:04.536Z,100233.66
2023-05-06T21:46:32.412Z,100250.44
2023-05-06T21:50:04.773Z,100239.69
2023-05-06T21:53:27.708Z,100234.00
2023-05-06T21:57:12.670Z,100225.12
2023-05-06T22:00:56.161Z,100226.69
2023-05-06T22:04:39.402Z,100234.16
2023-05-06T22:08:02.088Z,100226.56
2023-05-06T22:11:27.224Z,100221.31
2023-05-06T22:14:49.845Z,100220.06
2023-05-06T22:18:36.167Z,100221.97
2023-05-06T22:22:00.037Z,100217.38
2023-05-06T22:26:03.107Z,100211.53
2023-05-06T22:29:45.724Z,100200.47
2023-05-06T22:33:09.252Z,100204.22
2023-05-06T22:36:14.833Z,100205.12
2023-05-06T22:39:53.400Z,100200.78
2023-05-06T22:43:16.899Z,100195.97
2023-05-06T22:46:42.867Z,100195.22
2023-05-06T22:49:46.816Z,100189.75
2023-05-06T22:53:15.102Z,100195.63
2023-05-06T22:56:33.128Z,100185.87
2023-05-06T23:00:17.584Z,100187.09
2023-05-06T23:03:22.498Z,100195.00
2023-05-06T23:06:28.000Z,100197.00
2023-05-06T23:10:10.887Z,100194.53
2023-05-06T23:13:36.076Z,100189.72
2023-05-06T23:17:02.609Z,100187.03
2023-05-06T23:20:45.387Z,100197.38
2023-05-06T23:24:12.081Z,100195.03
2023-05-06T23:27:35.333Z,100191.19
2023-05-06T23:30:58.171Z,100189.59
2023-05-06T23:34:22.685Z,100183.47
2023-05-06T23:37:45.270Z,100190.16
2023-05-06T23:41:28.940Z,100185.59
2023-05-06T23:44:53.609Z,100190.94
2023-05-06T23:47:59.085Z,100204.13
2023-05-06T23:51:41.535Z,100202.13
2023-05-06T23:54:44.958Z,100194.19
2023-05-06T23:57:47.837Z,100193.37
